sensor_id;sensor_type;location;lat;lon;timestamp;P1;durP1;ratioP1;P2;durP2;ratioP2
66189;SDS011;52992;52.084;5.412;2022-12-26T00:00:35;74.10;;;18.03;;
66189;SDS011;52992;52.084;5.412;2022-12-26T00:03:02;46.90;;;15.63;;
66189;SDS011;52992;52.084;5.412;2022-12-26T00:05:33;56.33;;;16.33;;
66189;SDS011;52992;52.084;5.412;2022-12-26T00:08:02;64.97;;;16.83;;
66189;SDS011;52992;52.084;5.412;2022-12-26T00:10:29;49.00;;;14.53;;
66189;SDS011;52992;52.084;5.412;2022-12-26T00:12:55;70.43;;;16.87;;
66189;SDS011;52992;52.084;5.412;2022-12-26T00:15:42;65.30;;;16.23;;
66189;SDS011;52992;52.084;5.412;2022-12-26T00:18:09;54.63;;;16.77;;
66189;SDS011;52992;52.084;5.412;2022-12-26T00:20:36;61.70;;;17.07;;
66189;SDS011;52992;52.084;5.412;2022-12-26T00:23:03;71.50;;;18.13;;
66189;SDS011;52992;52.084;5.412;2022-12-26T00:25:29;66.83;;;17.40;;
66189;SDS011;52992;52.084;5.412;2022-12-26T00:27:59;59.53;;;18.13;;
66189;SDS011;52992;52.084;5.412;2022-12-26T00:30:26;61.40;;;17.53;;
66189;SDS011;52992;52.084;5.412;2022-12-26T00:32:53;74.13;;;17.50;;
66189;SDS011;52992;52.084;5.412;2022-12-26T00:35:20;72.63;;;17.93;;
66189;SDS011;52992;52.084;5.412;2022-12-26T00:37:50;86.43;;;18.20;;
66189;SDS011;52992;52.084;5.412;2022-12-26T00:40:17;81.17;;;17.33;;
66189;SDS011;52992;52.084;5.412;2022-12-26T00:42:44;68.23;;;17.40;;
66189;SDS011;52992;52.084;5.412;2022-12-26T00:45:10;82.07;;;18.40;;
66189;SDS011;52992;52.084;5.412;2022-12-26T00:47:37;68.10;;;18.50;;
66189;SDS011;52992;52.084;5.412;2022-12-26T00:50:04;89.00;;;18.23;;
66189;SDS011;52992;52.084;5.412;2022-12-26T00:52:40;54.47;;;15.63;;
66189;SDS011;52992;52.084;5.412;2022-12-26T00:55:08;60.63;;;16.60;;
66189;SDS011;52992;52.084;5.412;2022-12-26T00:57:35;64.67;;;16.23;;
66189;SDS011;52992;52.084;5.412;2022-12-26T01:00:03;57.43;;;16.20;;
66189;SDS011;52992;52.084;5.412;2022-12-26T01:02:30;60.97;;;14.93;;
66189;SDS011;52992;52.084;5.412;2022-12-26T01:05:05;60.13;;;15.37;;
66189;SDS011;52992;52.084;5.412;2022-12-26T01:07:37;63.40;;;15.57;;
66189;SDS011;52992;52.084;5.412;2022-12-26T01:10:25;49.37;;;13.57;;
66189;SDS011;52992;52.084;5.412;2022-12-26T01:12:53;48.03;;;15.03;;
66189;SDS011;52992;52.084;5.412;2022-12-26T01:15:20;75.67;;;16.80;;
66189;SDS011;52992;52.084;5.412;2022-12-26T01:17:46;57.37;;;16.07;;
66189;SDS011;52992;52.084;5.412;2022-12-26T01:20:13;65.83;;;16.00;;
66189;SDS011;52992;52.084;5.412;2022-12-26T01:22:40;81.43;;;20.30;;
66189;SDS011;52992;52.084;5.412;2022-12-26T01:25:07;80.50;;;20.03;;
66189;SDS011;52992;52.084;5.412;2022-12-26T01:27:35;82.40;;;19.20;;
66189;SDS011;52992;52.084;5.412;2022-12-26T01:30:02;77.30;;;19.03;;
66189;SDS011;52992;52.084;5.412;2022-12-26T01:32:30;87.23;;;19.53;;
66189;SDS011;52992;52.084;5.412;2022-12-26T01:34:57;80.80;;;20.47;;
66189;SDS011;52992;52.084;5.412;2022-12-26T01:37:23;85.63;;;19.43;;
66189;SDS011;52992;52.084;5.412;2022-12-26T01:39:50;64.70;;;17.47;;
66189;SDS011;52992;52.084;5.412;2022-12-26T01:42:19;93.77;;;20.83;;
66189;SDS011;52992;52.084;5.412;2022-12-26T01:44:57;66.57;;;19.13;;
66189;SDS011;52992;52.084;5.412;2022-12-26T01:47:48;75.63;;;20.37;;
66189;SDS011;52992;52.084;5.412;2022-12-26T01:50:42;67.10;;;18.33;;
66189;SDS011;52992;52.084;5.412;2022-12-26T01:53:19;58.10;;;18.00;;
66189;SDS011;52992;52.084;5.412;2022-12-26T01:55:55;77.33;;;20.57;;
66189;SDS011;52992;52.084;5.412;2022-12-26T01:58:28;117.67;;;23.67;;
66189;SDS011;52992;52.084;5.412;2022-12-26T02:00:57;80.90;;;20.93;;
66189;SDS011;52992;52.084;5.412;2022-12-26T02:03:24;90.07;;;21.57;;
66189;SDS011;52992;52.084;5.412;2022-12-26T02:06:10;68.37;;;19.07;;
66189;SDS011;52992;52.084;5.412;2022-12-26T02:08:39;82.87;;;21.40;;
66189;SDS011;52992;52.084;5.412;2022-12-26T02:11:10;94.07;;;22.10;;
66189;SDS011;52992;52.084;5.412;2022-12-26T02:13:58;64.97;;;19.70;;
66189;SDS011;52992;52.084;5.412;2022-12-26T02:16:26;88.03;;;23.83;;
66189;SDS011;52992;52.084;5.412;2022-12-26T02:18:54;71.00;;;21.23;;
66189;SDS011;52992;52.084;5.412;2022-12-26T02:21:36;83.23;;;22.70;;
66189;SDS011;52992;52.084;5.412;2022-12-26T02:26:56;66.83;;;21.17;;
66189;SDS011;52992;52.084;5.412;2022-12-26T02:39:03;75.80;;;21.87;;
66189;SDS011;52992;52.084;5.412;2022-12-26T02:44:37;79.27;;;22.73;;
66189;SDS011;52992;52.084;5.412;2022-12-26T02:47:35;63.57;;;19.93;;
66189;SDS011;52992;52.084;5.412;2022-12-26T02:53:26;76.90;;;22.10;;
66189;SDS011;52992;52.084;5.412;2022-12-26T02:59:25;74.23;;;22.13;;
66189;SDS011;52992;52.084;5.412;2022-12-26T03:05:29;54.63;;;19.57;;
66189;SDS011;52992;52.084;5.412;2022-12-26T03:08:23;85.13;;;21.43;;
66189;SDS011;52992;52.084;5.412;2022-12-26T03:11:31;66.77;;;21.07;;
66189;SDS011;52992;52.084;5.412;2022-12-26T03:15:22;64.40;;;20.77;;
66189;SDS011;52992;52.084;5.412;2022-12-26T03:17:36;93.77;;;24.03;;
66189;SDS011;52992;52.084;5.412;2022-12-26T03:20:09;65.97;;;20.10;;
66189;SDS011;52992;52.084;5.412;2022-12-26T03:28:20;71.07;;;22.50;;
66189;SDS011;52992;52.084;5.412;2022-12-26T03:30:48;70.37;;;23.63;;
66189;SDS011;52992;52.084;5.412;2022-12-26T03:33:16;102.30;;;25.67;;
66189;SDS011;52992;52.084;5.412;2022-12-26T03:36:02;77.67;;;24.90;;
66189;SDS011;52992;52.084;5.412;2022-12-26T03:38:38;67.67;;;24.33;;
66189;SDS011;52992;52.084;5.412;2022-12-26T03:41:35;59.23;;;23.50;;
66189;SDS011;52992;52.084;5.412;2022-12-26T03:44:35;65.30;;;22.30;;
66189;SDS011;52992;52.084;5.412;2022-12-26T03:47:46;62.83;;;22.80;;
66189;SDS011;52992;52.084;5.412;2022-12-26T03:50:43;63.77;;;22.37;;
66189;SDS011;52992;52.084;5.412;2022-12-26T03:56:23;58.83;;;19.47;;
66189;SDS011;52992;52.084;5.412;2022-12-26T03:59:23;55.87;;;20.40;;
66189;SDS011;52992;52.084;5.412;2022-12-26T04:02:13;63.30;;;22.17;;
66189;SDS011;52992;52.084;5.412;2022-12-26T04:05:00;60.50;;;20.70;;
66189;SDS011;52992;52.084;5.412;2022-12-26T04:07:54;55.33;;;20.87;;
66189;SDS011;52992;52.084;5.412;2022-12-26T04:10:47;57.47;;;19.93;;
66189;SDS011;52992;52.084;5.412;2022-12-26T04:16:42;61.70;;;18.93;;
66189;SDS011;52992;52.084;5.412;2022-12-26T04:19:45;52.20;;;18.73;;
66189;SDS011;52992;52.084;5.412;2022-12-26T04:25:41;49.07;;;17.43;;
66189;SDS011;52992;52.084;5.412;2022-12-26T04:28:30;49.17;;;18.13;;
66189;SDS011;52992;52.084;5.412;2022-12-26T04:31:20;53.97;;;17.40;;
66189;SDS011;52992;52.084;5.412;2022-12-26T04:34:25;42.47;;;18.07;;
66189;SDS011;52992;52.084;5.412;2022-12-26T04:37:24;57.53;;;18.30;;
66189;SDS011;52992;52.084;5.412;2022-12-26T04:40:22;63.20;;;20.70;;
66189;SDS011;52992;52.084;5.412;2022-12-26T04:43:13;67.53;;;20.67;;
66189;SDS011;52992;52.084;5.412;2022-12-26T04:46:15;61.77;;;20.37;;
66189;SDS011;52992;52.084;5.412;2022-12-26T04:48:44;56.57;;;20.57;;
66189;SDS011;52992;52.084;5.412;2022-12-26T04:51:32;60.07;;;21.77;;
66189;SDS011;52992;52.084;5.412;2022-12-26T04:53:59;70.93;;;22.13;;
66189;SDS011;52992;52.084;5.412;2022-12-26T04:56:28;71.70;;;23.90;;
66189;SDS011;52992;52.084;5.412;2022-12-26T04:58:55;63.67;;;22.03;;
66189;SDS011;52992;52.084;5.412;2022-12-26T05:01:22;122.83;;;26.37;;
66189;SDS011;52992;52.084;5.412;2022-12-26T05:04:11;82.43;;;23.63;;
66189;SDS011;52992;52.084;5.412;2022-12-26T05:06:59;78.10;;;23.33;;
66189;SDS011;52992;52.084;5.412;2022-12-26T05:09:47;80.67;;;23.37;;
66189;SDS011;52992;52.084;5.412;2022-12-26T05:12:15;98.63;;;25.20;;
66189;SDS011;52992;52.084;5.412;2022-12-26T05:14:42;89.40;;;24.50;;
66189;SDS011;52992;52.084;5.412;2022-12-26T05:17:09;63.00;;;22.03;;
66189;SDS011;52992;52.084;5.412;2022-12-26T05:19:56;68.00;;;21.60;;
66189;SDS011;52992;52.084;5.412;2022-12-26T05:22:42;70.23;;;22.57;;
66189;SDS011;52992;52.084;5.412;2022-12-26T05:25:29;97.40;;;23.43;;
66189;SDS011;52992;52.084;5.412;2022-12-26T05:28:18;73.37;;;21.10;;
66189;SDS011;52992;52.084;5.412;2022-12-26T05:31:04;69.13;;;20.30;;
66189;SDS011;52992;52.084;5.412;2022-12-26T05:33:31;81.60;;;21.83;;
66189;SDS011;52992;52.084;5.412;2022-12-26T05:36:17;59.63;;;18.63;;
66189;SDS011;52992;52.084;5.412;2022-12-26T05:38:45;52.57;;;18.40;;
66189;SDS011;52992;52.084;5.412;2022-12-26T05:41:13;56.60;;;18.77;;
66189;SDS011;52992;52.084;5.412;2022-12-26T05:43:40;59.33;;;17.87;;
66189;SDS011;52992;52.084;5.412;2022-12-26T05:46:07;56.03;;;17.10;;
66189;SDS011;52992;52.084;5.412;2022-12-26T05:48:34;44.17;;;16.47;;
66189;SDS011;52992;52.084;5.412;2022-12-26T05:51:01;57.10;;;17.43;;
66189;SDS011;52992;52.084;5.412;2022-12-26T05:53:29;53.03;;;15.53;;
66189;SDS011;52992;52.084;5.412;2022-12-26T05:56:01;45.73;;;15.40;;
66189;SDS011;52992;52.084;5.412;2022-12-26T05:58:31;42.63;;;14.07;;
66189;SDS011;52992;52.084;5.412;2022-12-26T06:01:03;39.97;;;14.97;;
66189;SDS011;52992;52.084;5.412;2022-12-26T06:03:31;34.77;;;13.50;;
66189;SDS011;52992;52.084;5.412;2022-12-26T06:05:59;35.87;;;13.87;;
66189;SDS011;52992;52.084;5.412;2022-12-26T06:08:27;37.70;;;13.70;;
66189;SDS011;52992;52.084;5.412;2022-12-26T06:10:54;35.90;;;13.37;;
66189;SDS011;52992;52.084;5.412;2022-12-26T06:13:21;29.77;;;12.17;;
66189;SDS011;52992;52.084;5.412;2022-12-26T06:15:47;33.47;;;11.80;;
66189;SDS011;52992;52.084;5.412;2022-12-26T06:18:14;26.70;;;11.23;;
66189;SDS011;52992;52.084;5.412;2022-12-26T06:20:41;32.67;;;11.50;;
66189;SDS011;52992;52.084;5.412;2022-12-26T06:23:08;27.60;;;11.63;;
66189;SDS011;52992;52.084;5.412;2022-12-26T06:25:35;22.40;;;9.47;;
66189;SDS011;52992;52.084;5.412;2022-12-26T06:28:02;28.47;;;10.60;;
66189;SDS011;52992;52.084;5.412;2022-12-26T06:30:28;23.37;;;10.17;;
66189;SDS011;52992;52.084;5.412;2022-12-26T06:32:55;24.57;;;10.00;;
66189;SDS011;52992;52.084;5.412;2022-12-26T06:35:22;20.13;;;10.43;;
66189;SDS011;52992;52.084;5.412;2022-12-26T06:37:50;23.37;;;10.37;;
66189;SDS011;52992;52.084;5.412;2022-12-26T06:40:17;22.87;;;10.13;;
66189;SDS011;52992;52.084;5.412;2022-12-26T06:42:44;19.93;;;9.20;;
66189;SDS011;52992;52.084;5.412;2022-12-26T06:45:12;23.73;;;10.57;;
66189;SDS011;52992;52.084;5.412;2022-12-26T06:47:39;21.63;;;10.37;;
66189;SDS011;52992;52.084;5.412;2022-12-26T06:50:06;22.83;;;9.33;;
66189;SDS011;52992;52.084;5.412;2022-12-26T06:52:32;26.03;;;10.23;;
66189;SDS011;52992;52.084;5.412;2022-12-26T06:54:59;20.23;;;9.40;;
66189;SDS011;52992;52.084;5.412;2022-12-26T06:57:26;21.03;;;9.67;;
66189;SDS011;52992;52.084;5.412;2022-12-26T06:59:53;22.50;;;9.10;;
66189;SDS011;52992;52.084;5.412;2022-12-26T07:02:20;20.70;;;9.57;;
66189;SDS011;52992;52.084;5.412;2022-12-26T07:04:47;31.63;;;10.90;;
66189;SDS011;52992;52.084;5.412;2022-12-26T07:07:13;22.93;;;9.23;;
66189;SDS011;52992;52.084;5.412;2022-12-26T07:09:40;25.57;;;9.80;;
66189;SDS011;52992;52.084;5.412;2022-12-26T07:12:07;19.17;;;8.67;;
66189;SDS011;52992;52.084;5.412;2022-12-26T07:14:35;20.57;;;9.37;;
66189;SDS011;52992;52.084;5.412;2022-12-26T07:17:01;19.67;;;10.03;;
66189;SDS011;52992;52.084;5.412;2022-12-26T07:19:28;16.60;;;8.60;;
66189;SDS011;52992;52.084;5.412;2022-12-26T07:21:55;22.10;;;9.73;;
66189;SDS011;52992;52.084;5.412;2022-12-26T07:24:22;18.57;;;9.17;;
66189;SDS011;52992;52.084;5.412;2022-12-26T07:26:49;15.47;;;8.33;;
66189;SDS011;52992;52.084;5.412;2022-12-26T07:29:15;16.60;;;8.17;;
66189;SDS011;52992;52.084;5.412;2022-12-26T07:31:43;18.63;;;9.03;;
66189;SDS011;52992;52.084;5.412;2022-12-26T07:34:10;17.90;;;8.63;;
66189;SDS011;52992;52.084;5.412;2022-12-26T07:36:36;16.40;;;8.27;;
66189;SDS011;52992;52.084;5.412;2022-12-26T07:39:05;21.27;;;9.03;;
66189;SDS011;52992;52.084;5.412;2022-12-26T07:41:33;21.43;;;9.70;;
66189;SDS011;52992;52.084;5.412;2022-12-26T07:44:18;17.47;;;8.80;;
66189;SDS011;52992;52.084;5.412;2022-12-26T07:46:45;19.93;;;8.40;;
66189;SDS011;52992;52.084;5.412;2022-12-26T07:49:12;21.93;;;8.67;;
66189;SDS011;52992;52.084;5.412;2022-12-26T07:51:39;23.13;;;9.13;;
66189;SDS011;52992;52.084;5.412;2022-12-26T07:54:07;15.53;;;8.50;;
66189;SDS011;52992;52.084;5.412;2022-12-26T07:56:37;14.67;;;7.57;;
66189;SDS011;52992;52.084;5.412;2022-12-26T07:59:04;17.80;;;8.10;;
66189;SDS011;52992;52.084;5.412;2022-12-26T08:01:31;15.20;;;7.60;;
66189;SDS011;52992;52.084;5.412;2022-12-26T08:03:58;15.40;;;7.43;;
66189;SDS011;52992;52.084;5.412;2022-12-26T08:06:26;15.60;;;8.40;;
66189;SDS011;52992;52.084;5.412;2022-12-26T08:08:52;17.83;;;7.93;;
66189;SDS011;52992;52.084;5.412;2022-12-26T08:11:20;17.57;;;7.60;;
66189;SDS011;52992;52.084;5.412;2022-12-26T08:13:49;20.17;;;8.13;;
66189;SDS011;52992;52.084;5.412;2022-12-26T08:16:19;17.10;;;6.83;;
66189;SDS011;52992;52.084;5.412;2022-12-26T08:18:46;16.93;;;6.73;;
66189;SDS011;52992;52.084;5.412;2022-12-26T08:21:13;13.07;;;6.43;;
66189;SDS011;52992;52.084;5.412;2022-12-26T08:23:40;16.17;;;7.83;;
66189;SDS011;52992;52.084;5.412;2022-12-26T08:26:08;20.33;;;6.73;;
66189;SDS011;52992;52.084;5.412;2022-12-26T08:28:40;17.40;;;5.93;;
66189;SDS011;52992;52.084;5.412;2022-12-26T08:31:07;11.23;;;5.63;;
66189;SDS011;52992;52.084;5.412;2022-12-26T08:33:35;13.90;;;5.83;;
66189;SDS011;52992;52.084;5.412;2022-12-26T08:36:02;9.30;;;5.53;;
66189;SDS011;52992;52.084;5.412;2022-12-26T08:38:34;12.50;;;5.50;;
66189;SDS011;52992;52.084;5.412;2022-12-26T08:41:03;10.43;;;5.63;;
66189;SDS011;52992;52.084;5.412;2022-12-26T08:43:30;12.13;;;4.77;;
66189;SDS011;52992;52.084;5.412;2022-12-26T08:46:18;8.20;;;4.93;;
66189;SDS011;52992;52.084;5.412;2022-12-26T08:48:46;8.50;;;5.30;;
66189;SDS011;52992;52.084;5.412;2022-12-26T08:51:18;12.80;;;5.23;;
66189;SDS011;52992;52.084;5.412;2022-12-26T08:53:47;13.93;;;6.50;;
66189;SDS011;52992;52.084;5.412;2022-12-26T08:56:19;14.67;;;6.23;;
66189;SDS011;52992;52.084;5.412;2022-12-26T08:58:48;8.27;;;5.40;;
66189;SDS011;52992;52.084;5.412;2022-12-26T09:01:16;9.60;;;5.40;;
66189;SDS011;52992;52.084;5.412;2022-12-26T09:03:46;11.90;;;4.83;;
66189;SDS011;52992;52.084;5.412;2022-12-26T09:06:13;9.10;;;4.80;;
66189;SDS011;52992;52.084;5.412;2022-12-26T09:08:41;9.20;;;4.83;;
66189;SDS011;52992;52.084;5.412;2022-12-26T09:13:39;13.10;;;5.30;;
66189;SDS011;52992;52.084;5.412;2022-12-26T09:16:12;13.20;;;5.20;;
66189;SDS011;52992;52.084;5.412;2022-12-26T09:18:40;12.27;;;5.13;;
66189;SDS011;52992;52.084;5.412;2022-12-26T09:21:09;8.83;;;4.53;;
66189;SDS011;52992;52.084;5.412;2022-12-26T09:23:37;7.03;;;4.30;;
66189;SDS011;52992;52.084;5.412;2022-12-26T09:26:09;14.37;;;5.90;;
66189;SDS011;52992;52.084;5.412;2022-12-26T09:28:37;11.77;;;4.70;;
66189;SDS011;52992;52.084;5.412;2022-12-26T09:31:06;10.80;;;4.87;;
66189;SDS011;52992;52.084;5.412;2022-12-26T09:33:36;7.00;;;4.53;;
66189;SDS011;52992;52.084;5.412;2022-12-26T09:36:08;9.40;;;5.30;;
66189;SDS011;52992;52.084;5.412;2022-12-26T09:38:41;11.23;;;5.10;;
66189;SDS011;52992;52.084;5.412;2022-12-26T09:41:14;7.57;;;4.17;;
66189;SDS011;52992;52.084;5.412;2022-12-26T09:49:30;9.60;;;3.97;;
66189;SDS011;52992;52.084;5.412;2022-12-26T09:52:09;13.90;;;4.90;;
66189;SDS011;52992;52.084;5.412;2022-12-26T09:57:50;10.00;;;4.03;;
66189;SDS011;52992;52.084;5.412;2022-12-26T10:00:17;11.17;;;3.70;;
66189;SDS011;52992;52.084;5.412;2022-12-26T10:02:51;9.37;;;3.23;;
66189;SDS011;52992;52.084;5.412;2022-12-26T10:05:22;6.53;;;2.87;;
66189;SDS011;52992;52.084;5.412;2022-12-26T10:08:06;7.90;;;2.40;;
66189;SDS011;52992;52.084;5.412;2022-12-26T10:10:57;6.97;;;2.40;;
66189;SDS011;52992;52.084;5.412;2022-12-26T10:13:32;11.77;;;2.63;;
66189;SDS011;52992;52.084;5.412;2022-12-26T10:16:12;10.60;;;2.40;;
66189;SDS011;52992;52.084;5.412;2022-12-26T10:21:40;9.93;;;2.33;;
66189;SDS011;52992;52.084;5.412;2022-12-26T10:24:19;10.77;;;3.07;;
66189;SDS011;52992;52.084;5.412;2022-12-26T10:26:49;9.13;;;2.67;;
66189;SDS011;52992;52.084;5.412;2022-12-26T10:29:23;8.13;;;1.67;;
66189;SDS011;52992;52.084;5.412;2022-12-26T10:31:55;13.77;;;2.60;;
66189;SDS011;52992;52.084;5.412;2022-12-26T10:34:32;8.97;;;2.20;;
66189;SDS011;52992;52.084;5.412;2022-12-26T10:37:09;13.63;;;2.40;;
66189;SDS011;52992;52.084;5.412;2022-12-26T10:39:58;8.13;;;2.33;;
66189;SDS011;52992;52.084;5.412;2022-12-26T10:42:49;10.70;;;2.60;;
66189;SDS011;52992;52.084;5.412;2022-12-26T10:45:31;9.63;;;2.40;;
66189;SDS011;52992;52.084;5.412;2022-12-26T10:48:05;8.03;;;2.67;;
66189;SDS011;52992;52.084;5.412;2022-12-26T10:50:32;12.07;;;2.90;;
66189;SDS011;52992;52.084;5.412;2022-12-26T10:53:02;13.37;;;3.93;;
66189;SDS011;52992;52.084;5.412;2022-12-26T10:55:33;6.77;;;2.93;;
66189;SDS011;52992;52.084;5.412;2022-12-26T10:58:05;7.17;;;2.80;;
66189;SDS011;52992;52.084;5.412;2022-12-26T11:00:39;7.27;;;2.60;;
66189;SDS011;52992;52.084;5.412;2022-12-26T11:03:11;10.53;;;2.70;;
66189;SDS011;52992;52.084;5.412;2022-12-26T11:05:49;10.17;;;3.00;;
66189;SDS011;52992;52.084;5.412;2022-12-26T11:08:39;6.37;;;1.90;;
66189;SDS011;52992;52.084;5.412;2022-12-26T11:11:31;6.90;;;1.80;;
66189;SDS011;52992;52.084;5.412;2022-12-26T11:14:25;4.47;;;1.40;;
66189;SDS011;52992;52.084;5.412;2022-12-26T11:17:08;4.37;;;1.47;;
66189;SDS011;52992;52.084;5.412;2022-12-26T11:19:39;7.27;;;1.73;;
66189;SDS011;52992;52.084;5.412;2022-12-26T11:22:25;12.80;;;2.57;;
66189;SDS011;52992;52.084;5.412;2022-12-26T11:25:11;5.20;;;1.53;;
66189;SDS011;52992;52.084;5.412;2022-12-26T11:28:17;10.10;;;1.90;;
66189;SDS011;52992;52.084;5.412;2022-12-26T11:30:49;6.77;;;2.10;;
66189;SDS011;52992;52.084;5.412;2022-12-26T11:36:01;2.70;;;1.57;;
66189;SDS011;52992;52.084;5.412;2022-12-26T11:38:53;11.83;;;2.07;;
66189;SDS011;52992;52.084;5.412;2022-12-26T11:44:01;6.23;;;1.40;;
66189;SDS011;52992;52.084;5.412;2022-12-26T11:49:22;12.47;;;4.07;;
66189;SDS011;52992;52.084;5.412;2022-12-26T11:51:52;6.50;;;2.40;;
66189;SDS011;52992;52.084;5.412;2022-12-26T11:54:35;6.50;;;1.40;;
66189;SDS011;52992;52.084;5.412;2022-12-26T11:57:20;6.03;;;1.53;;
66189;SDS011;52992;52.084;5.412;2022-12-26T11:59:52;3.37;;;1.70;;
66189;SDS011;52992;52.084;5.412;2022-12-26T12:02:26;4.90;;;1.80;;
66189;SDS011;52992;52.084;5.412;2022-12-26T12:04:56;2.27;;;1.10;;
66189;SDS011;52992;52.084;5.412;2022-12-26T12:07:37;7.50;;;2.90;;
66189;SDS011;52992;52.084;5.412;2022-12-26T12:10:48;3.90;;;1.30;;
66189;SDS011;52992;52.084;5.412;2022-12-26T12:13:41;7.53;;;1.20;;
66189;SDS011;52992;52.084;5.412;2022-12-26T12:19:12;4.67;;;1.20;;
66189;SDS011;52992;52.084;5.412;2022-12-26T12:38:51;5.97;;;1.70;;
66189;SDS011;52992;52.084;5.412;2022-12-26T12:44:53;5.43;;;1.30;;
66189;SDS011;52992;52.084;5.412;2022-12-26T12:47:27;9.63;;;3.53;;
66189;SDS011;52992;52.084;5.412;2022-12-26T12:55:46;1.97;;;1.13;;
66189;SDS011;52992;52.084;5.412;2022-12-26T12:58:32;2.13;;;1.30;;
66189;SDS011;52992;52.084;5.412;2022-12-26T13:01:21;3.87;;;1.53;;
66189;SDS011;52992;52.084;5.412;2022-12-26T13:03:56;3.80;;;1.20;;
66189;SDS011;52992;52.084;5.412;2022-12-26T13:12:20;2.73;;;1.77;;
66189;SDS011;52992;52.084;5.412;2022-12-26T13:15:00;5.77;;;1.93;;
66189;SDS011;52992;52.084;5.412;2022-12-26T13:17:50;5.23;;;1.77;;
66189;SDS011;52992;52.084;5.412;2022-12-26T13:20:41;4.27;;;1.53;;
66189;SDS011;52992;52.084;5.412;2022-12-26T13:31:40;2.57;;;1.27;;
66189;SDS011;52992;52.084;5.412;2022-12-26T13:34:09;3.50;;;1.50;;
66189;SDS011;52992;52.084;5.412;2022-12-26T13:36:43;4.90;;;1.73;;
66189;SDS011;52992;52.084;5.412;2022-12-26T13:44:45;5.50;;;1.93;;
66189;SDS011;52992;52.084;5.412;2022-12-26T13:47:29;3.63;;;1.50;;
66189;SDS011;52992;52.084;5.412;2022-12-26T13:50:42;4.00;;;1.93;;
66189;SDS011;52992;52.084;5.412;2022-12-26T13:53:11;1.57;;;1.47;;
66189;SDS011;52992;52.084;5.412;2022-12-26T13:55:51;6.97;;;3.40;;
66189;SDS011;52992;52.084;5.412;2022-12-26T14:12:12;14.07;;;6.40;;
66189;SDS011;52992;52.084;5.412;2022-12-26T14:17:45;8.33;;;3.60;;
66189;SDS011;52992;52.084;5.412;2022-12-26T14:29:16;12.57;;;2.70;;
66189;SDS011;52992;52.084;5.412;2022-12-26T14:32:11;7.47;;;3.70;;
66189;SDS011;52992;52.084;5.412;2022-12-26T14:40:22;4.57;;;1.70;;
66189;SDS011;52992;52.084;5.412;2022-12-26T14:45:43;7.13;;;2.70;;
66189;SDS011;52992;52.084;5.412;2022-12-26T14:50:44;8.57;;;4.20;;
66189;SDS011;52992;52.084;5.412;2022-12-26T15:03:50;4.87;;;2.67;;
66189;SDS011;52992;52.084;5.412;2022-12-26T15:12:10;3.80;;;1.90;;
66189;SDS011;52992;52.084;5.412;2022-12-26T15:23:40;7.80;;;2.80;;
66189;SDS011;52992;52.084;5.412;2022-12-26T15:29:15;9.07;;;3.10;;
66189;SDS011;52992;52.084;5.412;2022-12-26T15:32:03;12.00;;;5.40;;
66189;SDS011;52992;52.084;5.412;2022-12-26T15:34:41;8.30;;;3.13;;
66189;SDS011;52992;52.084;5.412;2022-12-26T15:40:20;18.30;;;10.37;;
66189;SDS011;52992;52.084;5.412;2022-12-26T15:57:31;15.47;;;7.47;;
66189;SDS011;52992;52.084;5.412;2022-12-26T16:00:17;13.25;;;7.63;;
66189;SDS011;52992;52.084;5.412;2022-12-26T16:05:39;17.73;;;8.40;;
66189;SDS011;52992;52.084;5.412;2022-12-26T16:08:15;16.43;;;7.93;;
66189;SDS011;52992;52.084;5.412;2022-12-26T16:10:46;15.40;;;7.00;;
66189;SDS011;52992;52.084;5.412;2022-12-26T16:13:20;16.47;;;7.83;;
66189;SDS011;52992;52.084;5.412;2022-12-26T16:15:56;12.47;;;6.67;;
66189;SDS011;52992;52.084;5.412;2022-12-26T16:18:25;16.43;;;6.87;;
66189;SDS011;52992;52.084;5.412;2022-12-26T16:20:54;25.50;;;8.37;;
66189;SDS011;52992;52.084;5.412;2022-12-26T16:23:43;21.10;;;8.30;;
66189;SDS011;52992;52.084;5.412;2022-12-26T16:26:38;22.52;;;10.02;;
66189;SDS011;52992;52.084;5.412;2022-12-26T16:29:07;22.57;;;10.47;;
66189;SDS011;52992;52.084;5.412;2022-12-26T16:31:41;27.93;;;11.27;;
66189;SDS011;52992;52.084;5.412;2022-12-26T16:34:16;17.63;;;6.80;;
66189;SDS011;52992;52.084;5.412;2022-12-26T16:36:44;7.93;;;5.63;;
66189;SDS011;52992;52.084;5.412;2022-12-26T16:39:20;7.73;;;4.10;;
66189;SDS011;52992;52.084;5.412;2022-12-26T16:41:56;10.57;;;4.03;;
66189;SDS011;52992;52.084;5.412;2022-12-26T16:46:58;5.30;;;4.13;;
66189;SDS011;52992;52.084;5.412;2022-12-26T16:49:27;10.63;;;3.97;;
66189;SDS011;52992;52.084;5.412;2022-12-26T16:51:56;12.63;;;5.50;;
66189;SDS011;52992;52.084;5.412;2022-12-26T16:54:28;9.97;;;5.03;;
66189;SDS011;52992;52.084;5.412;2022-12-26T17:04:58;8.00;;;4.60;;
66189;SDS011;52992;52.084;5.412;2022-12-26T17:07:26;14.77;;;4.90;;
66189;SDS011;52992;52.084;5.412;2022-12-26T17:09:54;8.95;;;4.55;;
66189;SDS011;52992;52.084;5.412;2022-12-26T17:12:25;5.90;;;3.70;;
66189;SDS011;52992;52.084;5.412;2022-12-26T17:14:56;6.17;;;3.87;;
66189;SDS011;52992;52.084;5.412;2022-12-26T17:17:25;6.40;;;3.40;;
66189;SDS011;52992;52.084;5.412;2022-12-26T17:19:55;9.00;;;3.50;;
66189;SDS011;52992;52.084;5.412;2022-12-26T17:22:32;9.20;;;4.03;;
66189;SDS011;52992;52.084;5.412;2022-12-26T17:25:17;7.00;;;4.27;;
66189;SDS011;52992;52.084;5.412;2022-12-26T17:30:38;6.13;;;3.90;;
66189;SDS011;52992;52.084;5.412;2022-12-26T17:35:47;10.33;;;4.27;;
66189;SDS011;52992;52.084;5.412;2022-12-26T17:38:48;9.67;;;4.03;;
66189;SDS011;52992;52.084;5.412;2022-12-26T17:41:15;7.70;;;3.30;;
66189;SDS011;52992;52.084;5.412;2022-12-26T17:43:43;4.70;;;2.77;;
66189;SDS011;52992;52.084;5.412;2022-12-26T17:46:12;7.00;;;3.70;;
66189;SDS011;52992;52.084;5.412;2022-12-26T17:48:41;10.10;;;3.93;;
66189;SDS011;52992;52.084;5.412;2022-12-26T17:51:11;8.20;;;3.83;;
66189;SDS011;52992;52.084;5.412;2022-12-26T17:53:45;5.30;;;3.10;;
66189;SDS011;52992;52.084;5.412;2022-12-26T17:56:15;11.00;;;4.20;;
66189;SDS011;52992;52.084;5.412;2022-12-26T17:58:46;8.20;;;4.13;;
66189;SDS011;52992;52.084;5.412;2022-12-26T18:01:14;10.63;;;5.10;;
66189;SDS011;52992;52.084;5.412;2022-12-26T18:03:47;13.23;;;4.87;;
66189;SDS011;52992;52.084;5.412;2022-12-26T18:06:14;11.63;;;4.27;;
66189;SDS011;52992;52.084;5.412;2022-12-26T18:08:42;9.40;;;4.03;;
66189;SDS011;52992;52.084;5.412;2022-12-26T18:11:10;9.90;;;5.07;;
66189;SDS011;52992;52.084;5.412;2022-12-26T18:13:38;12.83;;;4.60;;
66189;SDS011;52992;52.084;5.412;2022-12-26T18:16:06;16.23;;;4.00;;
66189;SDS011;52992;52.084;5.412;2022-12-26T18:18:39;7.77;;;3.73;;
66189;SDS011;52992;52.084;5.412;2022-12-26T18:21:09;10.13;;;3.83;;
66189;SDS011;52992;52.084;5.412;2022-12-26T18:23:37;11.80;;;4.83;;
66189;SDS011;52992;52.084;5.412;2022-12-26T18:26:13;6.87;;;3.40;;
66189;SDS011;52992;52.084;5.412;2022-12-26T18:28:52;6.37;;;2.67;;
66189;SDS011;52992;52.084;5.412;2022-12-26T18:31:19;5.90;;;2.67;;
66189;SDS011;52992;52.084;5.412;2022-12-26T18:33:46;6.60;;;3.00;;
66189;SDS011;52992;52.084;5.412;2022-12-26T18:36:13;7.40;;;3.20;;
66189;SDS011;52992;52.084;5.412;2022-12-26T18:38:41;10.40;;;3.70;;
66189;SDS011;52992;52.084;5.412;2022-12-26T18:41:12;10.50;;;3.23;;
66189;SDS011;52992;52.084;5.412;2022-12-26T18:43:42;10.73;;;3.17;;
66189;SDS011;52992;52.084;5.412;2022-12-26T18:46:22;8.83;;;3.03;;
66189;SDS011;52992;52.084;5.412;2022-12-26T18:48:50;9.03;;;3.43;;